Time;durP1;ratioP1;P1;durP2;ratioP2;P2;SDS_P1;SDS_P2;PMS_P1;PMS_P2;Temp;Humidity;BMP_temperature;BMP_pressure;BME280_temperature;BME280_humidity;BME280_pressure;Samples;Min_cycle;Max_cycle;Signal;HPM_P1;HPM_P2
2021/05/14 00:01:19;;;;;;;0.93;0.70;;;;;;;7.82;89.80;94804.59;5012962;28;20225;-68
2021/05/14 00:03:48;;;;;;;0.60;0.60;;;;;;;7.85;89.80;94806.84;5010981;28;20530;-67
2021/05/14 00:06:15;;;;;;;1.23;0.40;;;;;;;7.83;88.54;94812.28;5018118;28;20773;-68
2021/05/14 00:08:43;;;;;;;0.90;0.80;;;;;;;7.80;89.05;94806.63;5018203;28;20661;-68
2021/05/14 00:11:11;;;;;;;1.17;0.60;;;;;;;7.84;88.63;94808.66;5015447;28;20225;-67
2021/05/14 00:13:38;;;;;;;0.43;0.43;;;;;;;7.79;89.58;94805.00;5016716;28;20779;-68
2021/05/14 00:16:07;;;;;;;0.90;0.83;;;;;;;7.73;89.36;94810.97;5022126;28;20283;-67
2021/05/14 00:18:35;;;;;;;2.33;0.97;;;;;;;7.72;89.45;94807.53;5011692;28;20276;-67
2021/05/14 00:21:03;;;;;;;2.53;0.60;;;;;;;7.72;90.11;94804.09;5016532;28;20252;-68
2021/05/14 00:23:31;;;;;;;0.40;0.27;;;;;;;7.59;89.87;94802.13;5019097;28;20711;-67
2021/05/14 00:25:58;;;;;;;4.37;2.43;;;;;;;7.51;90.13;94800.47;5016817;28;20212;-68
2021/05/14 00:28:26;;;;;;;2.07;0.47;;;;;;;7.48;90.68;94798.19;5018608;28;20278;-68
2021/05/14 00:30:53;;;;;;;1.43;1.33;;;;;;;7.46;90.88;94800.19;5013307;28;20270;-68
2021/05/14 00:33:21;;;;;;;0.53;0.47;;;;;;;7.39;91.22;94801.94;5005220;28;20302;-68
2021/05/14 00:35:48;;;;;;;0.67;0.40;;;;;;;7.34;91.42;94807.75;5015329;28;20256;-68
2021/05/14 00:38:15;;;;;;;0.67;0.67;;;;;;;7.33;91.53;94810.56;5013531;28;20757;-68
2021/05/14 00:40:43;;;;;;;0.33;0.33;;;;;;;7.27;91.73;94806.03;5002897;28;20222;-67
2021/05/14 00:43:10;;;;;;;3.00;1.37;;;;;;;7.20;91.60;94807.78;5016521;28;20328;-67
2021/05/14 00:45:38;;;;;;;1.00;0.97;;;;;;;7.21;91.33;94819.88;5010371;28;20253;-68
2021/05/14 00:48:06;;;;;;;0.50;0.50;;;;;;;7.19;90.96;94814.03;5019541;28;20241;-67
2021/05/14 00:50:33;;;;;;;0.30;0.30;;;;;;;7.08;91.21;94818.75;5023619;28;20223;-68
2021/05/14 00:53:01;;;;;;;0.60;0.43;;;;;;;7.04;91.62;94820.13;5025628;28;20244;-68
2021/05/14 00:55:28;;;;;;;4.00;1.03;;;;;;;7.03;91.78;94812.41;5017481;28;20321;-67
2021/05/14 00:57:55;;;;;;;0.53;0.43;;;;;;;6.99;91.83;94819.84;5019379;28;20271;-68
2021/05/14 01:00:23;;;;;;;0.50;0.50;;;;;;;6.98;91.95;94818.22;5028734;28;20273;-68
2021/05/14 01:02:53;;;;;;;1.03;0.73;;;;;;;6.85;91.58;94815.41;5022516;28;20227;-67
2021/05/14 01:05:21;;;;;;;0.60;0.60;;;;;;;6.76;91.83;94819.09;5022302;28;20281;-67
2021/05/14 01:07:50;;;;;;;0.80;0.77;;;;;;;6.74;92.45;94810.63;5020295;28;20540;-67
2021/05/14 01:10:18;;;;;;;1.10;0.70;;;;;;;6.70;92.57;94809.34;5018890;28;20304;-68
2021/05/14 01:12:45;;;;;;;0.53;0.40;;;;;;;6.72;92.26;94818.66;5022856;28;20231;-68
2021/05/14 01:15:13;;;;;;;0.43;0.30;;;;;;;6.75;92.25;94822.72;5017946;28;20255;-67
2021/05/14 01:17:41;;;;;;;0.70;0.57;;;;;;;6.70;92.02;94804.94;5010826;28;20387;-66
2021/05/14 01:20:11;;;;;;;1.00;0.80;;;;;;;6.66;92.19;94813.31;5021237;28;20292;-67
2021/05/14 01:22:39;;;;;;;0.57;0.47;;;;;;;6.61;91.75;94813.06;5023301;28;20702;-68
2021/05/14 01:25:08;;;;;;;1.40;1.30;;;;;;;6.50;92.07;94815.13;5020877;28;20246;-68
2021/05/14 01:27:35;;;;;;;0.77;0.60;;;;;;;6.53;92.57;94813.97;5020355;28;20319;-68
2021/05/14 01:30:04;;;;;;;0.53;0.53;;;;;;;6.66;92.24;94813.31;5009052;28;20219;-68
2021/05/14 01:32:31;;;;;;;0.63;0.60;;;;;;;6.79;90.69;94813.53;5007738;28;20227;-68
2021/05/14 01:34:58;;;;;;;1.17;0.80;;;;;;;6.76;90.59;94808.63;5018338;28;20719;-68
2021/05/14 01:37:26;;;;;;;1.00;0.80;;;;;;;6.78;90.67;94814.53;5020019;28;20636;-68
2021/05/14 01:39:54;;;;;;;0.80;0.80;;;;;;;6.76;90.67;94819.09;5012505;28;20301;-68
2021/05/14 01:42:21;;;;;;;0.60;0.40;;;;;;;6.75;90.71;94814.84;5025718;28;20654;-68
2021/05/14 01:44:48;;;;;;;0.50;0.50;;;;;;;6.70;90.98;94815.41;5016752;28;20254;-68
2021/05/14 01:47:17;;;;;;;0.23;0.23;;;;;;;6.65;91.21;94824.81;5015951;28;21011;-68
2021/05/14 01:49:45;;;;;;;5.20;1.10;;;;;;;6.50;91.26;94825.63;5025845;28;20225;-68
2021/05/14 01:52:12;;;;;;;1.20;0.40;;;;;;;6.46;91.64;94823.53;5008442;28;20232;-68
2021/05/14 01:54:39;;;;;;;0.67;0.67;;;;;;;6.40;91.72;94819.84;5020730;28;20304;-68
2021/05/14 01:57:07;;;;;;;1.03;0.60;;;;;;;6.48;91.78;94822.34;5010090;28;20220;-68
2021/05/14 01:59:36;;;;;;;0.70;0.40;;;;;;;6.50;91.63;94824.81;5021723;28;20706;-68
2021/05/14 02:02:03;;;;;;;0.60;0.33;;;;;;;6.46;91.52;94819.09;5021987;28;20626;-67
2021/05/14 02:04:30;;;;;;;0.83;0.83;;;;;;;6.50;91.49;94812.53;5012026;28;20233;-67
2021/05/14 02:06:58;;;;;;;0.60;0.47;;;;;;;6.48;91.17;94824.97;5010893;28;20604;-66
2021/05/14 02:09:25;;;;;;;0.63;0.63;;;;;;;6.45;91.30;94817.47;5053444;28;20299;-67
2021/05/14 02:11:52;;;;;;;0.50;0.50;;;;;;;6.44;91.52;94815.03;5016810;28;20247;-68
2021/05/14 02:14:21;;;;;;;0.50;0.47;;;;;;;6.24;91.72;94817.34;5020797;28;20791;-68
2021/05/14 02:16:48;;;;;;;2.70;0.70;;;;;;;6.31;91.79;94814.81;5021465;28;20232;-68
2021/05/14 02:19:16;;;;;;;0.70;0.30;;;;;;;6.35;91.85;94806.44;5020573;28;20245;-68
2021/05/14 02:21:43;;;;;;;1.80;0.60;;;;;;;6.35;91.86;94811.69;5022558;28;20267;-68
2021/05/14 02:24:11;;;;;;;1.67;0.80;;;;;;;6.34;91.43;94804.81;5021711;28;20668;-67
2021/05/14 02:26:38;;;;;;;0.40;0.40;;;;;;;6.32;90.89;94806.81;5016807;28;20252;-68
2021/05/14 02:29:06;;;;;;;0.53;0.53;;;;;;;6.21;91.05;94809.84;5015338;28;20220;-68
2021/05/14 02:31:34;;;;;;;1.67;0.83;;;;;;;6.12;91.63;94809.09;5019444;28;20690;-68
2021/05/14 02:34:02;;;;;;;0.87;0.70;;;;;;;6.20;91.62;94808.22;5006918;28;20582;-67
2021/05/14 02:36:29;;;;;;;0.50;0.40;;;;;;;6.29;90.75;94812.38;5019588;28;20243;-68
2021/05/14 02:38:57;;;;;;;4.13;0.67;;;;;;;6.21;90.23;94815.88;5020609;28;20282;-68
2021/05/14 02:41:24;;;;;;;0.63;0.60;;;;;;;6.25;90.06;94816.34;5017385;28;20311;-68
2021/05/14 02:43:52;;;;;;;0.47;0.47;;;;;;;6.16;90.39;94812.19;5008973;28;20247;-67
2021/05/14 02:46:19;;;;;;;0.40;0.37;;;;;;;6.13;90.50;94809.94;5009121;28;20228;-68
2021/05/14 02:48:47;;;;;;;0.63;0.57;;;;;;;6.01;90.64;94813.94;5012440;28;20647;-68
2021/05/14 02:51:14;;;;;;;0.53;0.53;;;;;;;6.02;91.06;94803.28;5016473;28;20254;-68
2021/05/14 02:53:42;;;;;;;1.33;1.00;;;;;;;5.97;91.05;94806.44;5015826;28;20258;-67
2021/05/14 02:56:09;;;;;;;0.80;0.70;;;;;;;6.02;91.28;94815.56;5019301;28;20239;-68
2021/05/14 02:58:36;;;;;;;1.47;0.60;;;;;;;5.99;90.96;94816.75;5012132;28;20219;-67
2021/05/14 03:01:04;;;;;;;0.50;0.50;;;;;;;6.04;90.60;94813.59;5020823;28;20255;-68
2021/05/14 03:03:31;;;;;;;0.83;0.80;;;;;;;6.03;90.56;94811.94;5019168;28;20227;-68
2021/05/14 03:05:59;;;;;;;1.23;0.50;;;;;;;6.08;90.40;94809.63;5014563;28;20239;-67
2021/05/14 03:08:27;;;;;;;1.43;0.67;;;;;;;6.06;90.16;94816.84;5021548;28;20251;-67
2021/05/14 03:10:54;;;;;;;0.77;0.77;;;;;;;5.99;90.28;94812.31;5013303;28;20338;-68
2021/05/14 03:13:21;;;;;;;1.00;0.43;;;;;;;5.97;90.41;94814.31;5007483;28;20696;-67
2021/05/14 03:15:49;;;;;;;0.50;0.50;;;;;;;5.90;90.93;94808.13;5019770;28;20227;-66
2021/05/14 03:18:16;;;;;;;2.00;0.90;;;;;;;5.80;91.17;94815.38;5013238;28;20216;-67
2021/05/14 03:20:44;;;;;;;1.00;0.70;;;;;;;5.66;91.73;94811.72;5018252;28;20693;-65
2021/05/14 03:23:12;;;;;;;0.70;0.30;;;;;;;5.56;91.91;94812.94;5006063;28;20231;-66
2021/05/14 03:25:39;;;;;;;0.90;0.90;;;;;;;5.37;92.61;94812.38;5018205;28;20271;-64
2021/05/14 03:28:07;;;;;;;2.23;1.17;;;;;;;5.40;92.88;94812.06;5022917;28;20280;-66
2021/05/14 03:30:34;;;;;;;0.37;0.37;;;;;;;5.36;93.26;94809.94;5014715;28;20232;-66
2021/05/14 03:33:02;;;;;;;0.50;0.50;;;;;;;5.29;93.31;94809.81;5016034;28;20277;-66
2021/05/14 03:35:29;;;;;;;0.73;0.40;;;;;;;5.27;93.05;94810.97;5021350;28;20227;-64
2021/05/14 03:37:56;;;;;;;1.70;0.60;;;;;;;5.20;93.00;94803.00;5016643;28;20294;-66
2021/05/14 03:40:33;;;;;;;0.47;0.40;;;;;;;5.17;93.40;94805.16;5016891;28;20243;-66
2021/05/14 03:43:01;;;;;;;0.77;0.77;;;;;;;5.19;94.04;94804.00;5018799;28;20223;-66
2021/05/14 03:45:29;;;;;;;0.50;0.50;;;;;;;5.17;95.08;94805.97;5010708;28;20250;-66
2021/05/14 03:47:56;;;;;;;1.63;0.63;;;;;;;5.20;95.16;94805.63;5014932;28;20662;-66
2021/05/14 03:50:27;;;;;;;0.50;0.50;;;;;;;5.23;95.03;94800.06;5009449;28;20350;-66
2021/05/14 03:52:55;;;;;;;2.17;1.63;;;;;;;5.22;94.81;94808.09;5019399;28;20223;-65
2021/05/14 03:55:23;;;;;;;0.97;0.40;;;;;;;5.23;94.95;94810.53;5019171;28;20255;-66
2021/05/14 03:57:51;;;;;;;0.47;0.40;;;;;;;5.21;94.18;94806.44;5019045;28;20224;-65
2021/05/14 04:00:20;;;;;;;0.40;0.40;;;;;;;5.06;94.60;94814.22;5016834;28;20539;-66
2021/05/14 04:02:47;;;;;;;0.50;0.50;;;;;;;5.02;94.29;94812.91;5017781;28;20227;-66
2021/05/14 04:05:14;;;;;;;0.50;0.50;;;;;;;4.96;94.24;94814.41;5008320;28;20836;-66
2021/05/14 04:07:41;;;;;;;1.03;0.93;;;;;;;4.89;94.44;94812.66;5003997;28;20220;-66
2021/05/14 04:10:14;;;;;;;0.77;0.63;;;;;;;4.92;94.65;94813.09;5008272;28;20274;-66
2021/05/14 04:15:28;;;;;;;0.60;0.57;;;;;;;5.40;94.79;94806.84;5020863;28;20240;-67
2021/05/14 04:17:55;;;;;;;1.73;0.73;;;;;;;5.62;93.78;94820.09;5015443;28;20239;-68
2021/05/14 04:20:23;;;;;;;0.73;0.73;;;;;;;5.79;92.54;94811.16;5009393;28;20246;-68
2021/05/14 04:22:51;;;;;;;0.60;0.40;;;;;;;6.08;91.38;94807.81;5021762;28;20227;-68
2021/05/14 04:25:19;;;;;;;0.77;0.47;;;;;;;6.19;90.24;94806.59;5016671;28;20310;-67
2021/05/14 04:27:46;;;;;;;0.50;0.50;;;;;;;6.35;90.15;94811.69;5017170;28;20220;-67
2021/05/14 04:30:15;;;;;;;0.60;0.30;;;;;;;6.62;88.27;94812.06;5013076;28;20571;-68
2021/05/14 04:32:43;;;;;;;1.13;0.70;;;;;;;6.77;88.31;94808.47;5011713;28;20243;-68
2021/05/14 04:35:10;;;;;;;1.00;0.93;;;;;;;6.90;87.89;94807.81;5008677;28;20228;-67
2021/05/14 04:37:38;;;;;;;1.57;0.97;;;;;;;7.06;87.56;94809.44;5017871;28;20223;-67
2021/05/14 04:40:06;;;;;;;1.93;0.97;;;;;;;7.21;86.98;94814.63;5021029;28;20726;-68
2021/05/14 04:42:34;;;;;;;0.73;0.50;;;;;;;7.28;86.93;94805.84;5018699;28;20253;-68
2021/05/14 04:45:02;;;;;;;0.57;0.57;;;;;;;7.42;86.42;94798.97;5016287;28;20786;-67
2021/05/14 04:47:30;;;;;;;1.67;0.70;;;;;;;7.54;86.60;94807.16;5015563;28;20376;-67
2021/05/14 04:49:59;;;;;;;1.07;0.40;;;;;;;7.63;86.49;94806.84;5009060;28;20233;-67
2021/05/14 04:52:28;;;;;;;0.40;0.40;;;;;;;7.67;87.07;94808.09;5021020;28;20278;-67
2021/05/14 04:54:57;;;;;;;0.57;0.57;;;;;;;7.63;86.67;94806.84;5017308;28;20678;-68
2021/05/14 04:57:24;;;;;;;0.33;0.33;;;;;;;7.64;86.71;94797.97;5020582;28;20220;-68
2021/05/14 04:59:51;;;;;;;0.50;0.50;;;;;;;7.67;87.29;94796.78;5014246;28;20246;-68
2021/05/14 05:02:19;;;;;;;0.70;0.63;;;;;;;7.72;87.90;94801.47;5014415;28;20753;-68
2021/05/14 05:04:46;;;;;;;0.67;0.50;;;;;;;7.85;88.61;94804.22;5018955;28;20328;-68
2021/05/14 05:07:14;;;;;;;1.70;0.50;;;;;;;7.97;89.54;94808.81;5020799;28;20287;-68
2021/05/14 05:09:42;;;;;;;0.67;0.60;;;;;;;8.04;89.25;94811.47;5024289;28;20222;-68
2021/05/14 05:12:09;;;;;;;0.70;0.70;;;;;;;8.13;88.31;94807.69;5008049;28;20315;-67
2021/05/14 05:14:38;;;;;;;0.57;0.30;;;;;;;8.22;87.40;94805.75;5020940;28;20301;-68
2021/05/14 05:17:05;;;;;;;1.90;0.47;;;;;;;8.34;87.12;94808.69;5015175;28;20539;-67
2021/05/14 05:19:33;;;;;;;0.50;0.40;;;;;;;8.52;85.72;94802.00;5043296;28;20301;-68
2021/05/14 05:22:00;;;;;;;1.50;0.20;;;;;;;8.71;85.48;94805.75;5012269;28;20232;-68
2021/05/14 05:24:29;;;;;;;1.80;0.30;;;;;;;8.81;83.35;94806.22;5019294;28;20300;-67
2021/05/14 05:26:56;;;;;;;3.27;0.50;;;;;;;8.83;83.48;94804.19;5014696;28;20697;-68
2021/05/14 05:29:24;;;;;;;1.13;0.67;;;;;;;8.89;82.68;94820.22;5023690;28;20257;-68
2021/05/14 05:31:51;;;;;;;0.43;0.43;;;;;;;8.92;82.46;94812.75;5022955;28;20708;-68
2021/05/14 05:34:19;;;;;;;0.87;0.70;;;;;;;9.06;82.36;94811.00;5008397;28;20220;-68
2021/05/14 05:36:47;;;;;;;0.50;0.40;;;;;;;8.99;82.49;94812.78;5018172;28;20288;-68
2021/05/14 05:39:14;;;;;;;0.73;0.73;;;;;;;9.12;81.93;94812.84;5008188;28;20584;-67
2021/05/14 05:41:42;;;;;;;0.43;0.40;;;;;;;9.25;82.05;94812.91;5007826;28;20232;-67
2021/05/14 05:44:09;;;;;;;0.83;0.50;;;;;;;9.39;80.83;94819.03;5022168;28;20675;-68
2021/05/14 05:46:37;;;;;;;0.50;0.50;;;;;;;9.40;81.17;94821.47;5022194;28;20705;-68
2021/05/14 05:49:05;;;;;;;0.50;0.30;;;;;;;9.50;80.92;94820.28;5020092;28;20291;-68
2021/05/14 05:51:32;;;;;;;4.47;0.40;;;;;;;9.47;80.96;94823.31;5012748;28;20224;-67
2021/05/14 05:54:00;;;;;;;0.63;0.50;;;;;;;9.41;80.33;94817.81;5016924;28;20267;-67
2021/05/14 05:56:28;;;;;;;0.27;0.20;;;;;;;9.49;80.89;94831.81;5016766;28;20322;-68
2021/05/14 05:58:59;;;;;;;0.30;0.30;;;;;;;9.51;81.87;94832.44;5018843;28;20231;-67
2021/05/14 06:01:26;;;;;;;2.10;0.57;;;;;;;9.44;82.00;94831.63;5013452;28;20232;-67
2021/05/14 06:03:55;;;;;;;0.67;0.67;;;;;;;9.56;80.98;94830.03;5008039;28;20317;-68
2021/05/14 06:06:22;;;;;;;0.53;0.30;;;;;;;9.71;80.93;94833.31;5012526;28;20315;-68
2021/05/14 06:08:49;;;;;;;0.83;0.43;;;;;;;9.84;80.61;94835.19;5018897;28;20224;-68
2021/05/14 06:11:17;;;;;;;1.70;1.60;;;;;;;9.86;78.82;94833.97;5007035;28;20310;-68
2021/05/14 06:13:44;;;;;;;2.47;1.40;;;;;;;10.02;77.68;94831.97;5022672;28;20584;-68
2021/05/14 06:16:14;;;;;;;1.13;0.43;;;;;;;10.02;78.50;94829.34;5023457;28;20315;-67
2021/05/14 06:18:45;;;;;;;0.50;0.50;;;;;;;10.17;76.55;94827.34;5021772;28;20273;-67
2021/05/14 06:21:12;;;;;;;0.30;0.23;;;;;;;10.15;77.10;94826.69;5018966;28;20239;-68
2021/05/14 06:23:39;;;;;;;0.60;0.60;;;;;;;9.89;76.19;94827.50;5010807;28;20326;-68
2021/05/14 06:26:07;;;;;;;1.70;0.23;;;;;;;10.14;76.56;94828.53;5020781;28;20674;-68
2021/05/14 06:28:34;;;;;;;0.57;0.50;;;;;;;10.20;77.81;94829.56;5009559;28;20308;-68
2021/05/14 06:31:03;;;;;;;0.33;0.33;;;;;;;10.14;77.99;94833.00;5009751;28;20221;-68
2021/05/14 06:33:31;;;;;;;0.50;0.30;;;;;;;10.02;77.77;94831.97;5022042;28;20308;-68
2021/05/14 06:36:01;;;;;;;0.30;0.30;;;;;;;9.98;77.93;94840.28;5014988;28;20286;-68
2021/05/14 06:38:29;;;;;;;0.80;0.40;;;;;;;10.03;78.01;94831.75;5014627;28;20614;-68
2021/05/14 06:40:56;;;;;;;0.37;0.30;;;;;;;9.96;78.84;94841.47;5010811;28;20270;-68
2021/05/14 06:43:24;;;;;;;0.40;0.40;;;;;;;9.95;78.39;94839.84;5020903;28;20656;-68
2021/05/14 06:45:51;;;;;;;0.40;0.20;;;;;;;9.94;78.51;94839.03;5016654;28;20266;-67
2021/05/14 06:48:18;;;;;;;0.43;0.10;;;;;;;9.96;76.17;94836.19;5022630;28;20861;-68
2021/05/14 06:50:46;;;;;;;0.30;0.20;;;;;;;10.05;77.41;94835.00;5017595;28;20282;-68
2021/05/14 06:53:15;;;;;;;0.63;0.20;;;;;;;10.13;76.24;94839.28;5013553;28;20252;-68
2021/05/14 06:55:42;;;;;;;0.77;0.40;;;;;;;10.37;76.36;94832.66;5012483;28;20325;-68
2021/05/14 06:58:10;;;;;;;0.50;0.50;;;;;;;10.60;73.47;94842.78;5017615;28;20242;-68
2021/05/14 07:00:37;;;;;;;0.83;0.40;;;;;;;10.77;73.59;94838.69;5017446;28;20266;-68
2021/05/14 07:03:05;;;;;;;0.40;0.30;;;;;;;10.87;72.43;94844.38;5020176;28;20232;-68
2021/05/14 07:05:32;;;;;;;0.30;0.30;;;;;;;11.00;73.02;94841.72;5008793;28;20234;-68
2021/05/14 07:08:00;;;;;;;0.73;0.73;;;;;;;11.22;71.33;94852.03;5009514;28;20242;-68
2021/05/14 07:10:28;;;;;;;0.23;0.20;;;;;;;11.27;71.29;94845.13;5010836;28;20731;-68
2021/05/14 07:12:55;;;;;;;0.73;0.10;;;;;;;11.37;69.33;94839.38;5015462;28;20219;-68
2021/05/14 07:15:23;;;;;;;0.70;0.50;;;;;;;11.57;70.36;94845.41;5013886;28;20262;-68
2021/05/14 07:17:52;;;;;;;0.67;0.60;;;;;;;11.75;67.91;94841.25;5021170;28;20227;-68
2021/05/14 07:20:20;;;;;;;0.30;0.30;;;;;;;11.90;69.43;94833.91;5006458;28;20318;-68
2021/05/14 07:22:48;;;;;;;0.87;0.30;;;;;;;11.99;67.40;94843.22;5014462;28;20222;-68
2021/05/14 07:25:16;;;;;;;0.20;0.20;;;;;;;12.09;67.01;94840.91;5019513;28;20232;-69
2021/05/14 07:27:44;;;;;;;0.30;0.20;;;;;;;12.28;66.77;94846.28;5019323;28;20250;-68
2021/05/14 07:30:12;;;;;;;0.80;0.20;;;;;;;12.43;65.54;94844.13;5018191;28;20668;-68
2021/05/14 07:32:40;;;;;;;5.87;0.60;;;;;;;12.61;65.66;94836.25;5019301;28;20231;-68
2021/05/14 07:35:09;;;;;;;0.43;0.20;;;;;;;12.76;64.96;94844.66;5018765;28;20688;-68
2021/05/14 07:37:36;;;;;;;0.30;0.30;;;;;;;12.92;64.52;94847.81;5011560;28;20692;-68
2021/05/14 07:40:06;;;;;;;0.27;0.27;;;;;;;12.88;66.94;94841.31;5015566;28;20274;-68
2021/05/14 07:42:34;;;;;;;0.10;0.10;;;;;;;13.05;63.93;94847.66;5048427;28;20701;-68
2021/05/14 07:45:01;;;;;;;0.30;0.30;;;;;;;13.13;65.60;94839.44;5017729;28;20247;-69
2021/05/14 07:47:28;;;;;;;0.13;0.10;;;;;;;12.99;66.01;94843.25;5018953;28;20299;-68
2021/05/14 07:49:56;;;;;;;2.33;0.97;;;;;;;12.98;66.34;94836.31;5012720;28;20610;-68
2021/05/14 07:52:23;;;;;;;2.57;0.20;;;;;;;13.27;65.97;94840.97;5014611;28;20243;-69
2021/05/14 07:54:51;;;;;;;0.63;0.20;;;;;;;13.29;65.41;94843.38;5021124;28;20754;-68
2021/05/14 07:57:20;;;;;;;0.30;0.30;;;;;;;13.45;67.11;94842.81;5018287;28;20228;-68
2021/05/14 07:59:49;;;;;;;0.60;0.50;;;;;;;13.48;65.09;94841.53;5024361;28;20709;-68
2021/05/14 08:02:16;;;;;;;0.10;0.10;;;;;;;13.58;66.12;94831.22;5013664;28;20327;-68
2021/05/14 08:04:43;;;;;;;0.80;0.20;;;;;;;13.48;65.58;94836.25;5012262;28;20717;-68
2021/05/14 08:07:11;;;;;;;0.20;0.20;;;;;;;13.48;64.79;94838.88;5048434;28;20307;-68
2021/05/14 08:09:40;;;;;;;2.07;0.20;;;;;;;13.20;65.02;94840.22;5017183;28;20254;-68
2021/05/14 08:12:09;;;;;;;0.30;0.27;;;;;;;13.16;66.65;94836.34;5012618;28;20228;-68
2021/05/14 08:14:36;;;;;;;0.20;0.10;;;;;;;12.99;68.58;94835.31;5016084;28;20255;-68
2021/05/14 08:17:04;;;;;;;1.50;0.47;;;;;;;12.55;70.97;94833.66;5019852;28;20458;-68
2021/05/14 08:19:32;;;;;;;0.13;0.13;;;;;;;12.82;68.93;94838.50;5017361;28;20467;-68
2021/05/14 08:21:59;;;;;;;0.83;0.83;;;;;;;12.77;66.89;94835.69;5015231;28;20270;-68
2021/05/14 08:24:26;;;;;;;1.07;0.40;;;;;;;12.93;67.75;94833.53;5015810;28;20301;-68
2021/05/14 08:26:54;;;;;;;1.40;0.67;;;;;;;13.26;66.57;94827.94;5010687;28;20216;-68
2021/05/14 08:29:22;;;;;;;0.20;0.13;;;;;;;13.65;67.22;94819.50;5016220;28;20240;-68
2021/05/14 08:31:49;;;;;;;1.17;0.10;;;;;;;13.84;64.19;94824.78;5018563;28;20216;-68
2021/05/14 08:34:18;;;;;;;0.30;0.10;;;;;;;14.33;61.62;94815.69;5021268;28;20315;-69
2021/05/14 08:36:45;;;;;;;3.10;0.30;;;;;;;14.95;62.82;94810.84;5026995;28;20243;-68
2021/05/14 08:39:12;;;;;;;0.67;0.20;;;;;;;15.19;62.67;94813.50;5015805;28;20718;-69
2021/05/14 08:41:40;;;;;;;0.10;0.10;;;;;;;15.47;61.70;94818.88;5008818;28;20281;-68
2021/05/14 08:44:08;;;;;;;0.10;0.10;;;;;;;15.83;57.48;94819.63;5043987;28;20588;-69
2021/05/14 08:46:36;;;;;;;0.50;0.50;;;;;;;16.20;59.55;94817.38;5014092;28;20228;-69
2021/05/14 08:49:15;;;;;;;0.50;0.50;;;;;;;15.50;62.49;94818.38;5017662;28;20257;-68
2021/05/14 08:51:44;;;;;;;3.53;0.50;;;;;;;15.20;62.17;94828.38;5009963;28;20265;-69
2021/05/14 08:54:11;;;;;;;0.30;0.20;;;;;;;14.69;63.88;94827.22;5013867;28;20262;-69
2021/05/14 08:56:38;;;;;;;0.50;0.30;;;;;;;14.70;63.90;94828.84;5012544;28;20294;-68
2021/05/14 08:59:06;;;;;;;0.30;0.30;;;;;;;14.74;61.25;94827.34;5012579;28;20246;-69
2021/05/14 09:01:33;;;;;;;0.43;0.43;;;;;;;14.47;64.05;94837.59;5017826;28;20214;-69
2021/05/14 09:04:06;;;;;;;0.20;0.10;;;;;;;14.14;64.50;94835.38;5016180;28;20223;-69
2021/05/14 09:06:35;;;;;;;0.30;0.10;;;;;;;14.48;58.70;94837.34;5017709;28;20219;-69
2021/05/14 09:09:06;;;;;;;0.10;0.10;;;;;;;15.29;57.48;94829.66;5009432;28;20275;-69
2021/05/14 09:11:38;;;;;;;0.20;0.20;;;;;;;15.28;55.55;94820.88;5020150;28;20329;-69
2021/05/14 09:14:07;;;;;;;0.73;0.73;;;;;;;16.09;53.33;94821.72;5010491;28;20286;-69
2021/05/14 09:16:42;;;;;;;0.10;0.10;;;;;;;16.98;52.98;94829.06;5019183;28;20235;-69
2021/05/14 09:19:11;;;;;;;0.17;0.10;;;;;;;17.20;50.12;94821.13;5010559;28;20231;-67
2021/05/14 09:21:41;;;;;;;0.87;0.30;;;;;;;17.38;52.17;94818.19;5012438;28;20231;-67
2021/05/14 09:24:09;;;;;;;0.10;0.10;;;;;;;17.57;54.39;94821.34;5016143;28;20232;-67
2021/05/14 09:26:37;;;;;;;0.27;0.20;;;;;;;17.18;53.64;94816.00;5018566;28;20216;-67
2021/05/14 09:29:36;;;;;;;0.37;0.20;;;;;;;16.96;55.43;94820.50;5010822;28;20596;-65
2021/05/14 09:32:21;;;;;;;0.20;0.10;;;;;;;16.73;51.95;94811.66;5019030;28;20477;-67
2021/05/14 09:34:50;;;;;;;0.40;0.40;;;;;;;16.96;55.46;94825.84;5013951;28;20306;-66
2021/05/14 09:37:18;;;;;;;0.20;0.20;;;;;;;17.20;52.50;94821.13;5015683;28;20266;-67
2021/05/14 09:39:47;;;;;;;0.10;0.10;;;;;;;17.67;50.68;94810.81;5016143;28;20635;-67
2021/05/14 09:42:30;;;;;;;0.30;0.10;;;;;;;17.39;53.22;94810.97;5021772;28;20311;-67
2021/05/14 09:45:16;;;;;;;0.10;0.10;;;;;;;16.68;51.13;94808.88;5021932;28;20301;-67
2021/05/14 09:47:44;;;;;;;1.40;0.20;;;;;;;16.41;54.83;94811.34;5019974;28;20611;-67
2021/05/14 09:50:31;;;;;;;0.20;0.10;;;;;;;16.54;54.14;94812.88;5021174;28;20224;-66
2021/05/14 09:53:08;;;;;;;0.10;0.10;;;;;;;16.85;55.10;94818.75;5016573;28;20339;-67
2021/05/14 09:55:38;;;;;;;0.20;0.20;;;;;;;16.33;54.71;94810.94;5021028;28;20223;-66
2021/05/14 09:58:14;;;;;;;0.30;0.17;;;;;;;15.46;60.33;94817.25;5016595;28;20227;-65
2021/05/14 10:00:42;;;;;;;1.90;0.30;;;;;;;15.08;61.40;94815.09;5017298;28;20262;-67
2021/05/14 10:03:11;;;;;;;0.20;0.20;;;;;;;15.35;60.05;94815.41;5017429;28;20333;-68
2021/05/14 10:05:39;;;;;;;0.27;0.20;;;;;;;16.15;60.10;94810.09;5023073;28;20388;-68
2021/05/14 10:08:07;;;;;;;0.30;0.20;;;;;;;15.78;57.83;94816.84;5015951;28;20251;-66
2021/05/14 10:10:36;;;;;;;0.50;0.13;;;;;;;16.91;54.97;94807.09;5010797;28;20805;-67
2021/05/14 10:13:04;;;;;;;0.20;0.20;;;;;;;18.03;55.08;94804.03;5014702;28;20216;-66
2021/05/14 10:15:32;;;;;;;0.07;0.07;;;;;;;19.08;51.98;94803.63;5007354;28;20232;-66
2021/05/14 10:18:03;;;;;;;2.97;0.20;;;;;;;19.03;50.65;94797.19;5009601;28;20235;-66
2021/05/14 10:20:31;;;;;;;0.20;0.10;;;;;;;19.35;49.75;94790.94;5013365;28;20282;-66
2021/05/14 10:23:03;;;;;;;0.67;0.10;;;;;;;19.01;53.50;94793.94;5013784;28;20594;-67
2021/05/14 10:25:49;;;;;;;2.10;1.40;;;;;;;19.44;51.61;94792.06;5014976;28;20752;-67
2021/05/14 10:28:20;;;;;;;0.77;0.60;;;;;;;19.57;49.94;94783.59;5015743;28;20411;-68
2021/05/14 10:31:19;;;;;;;0.40;0.40;;;;;;;20.23;47.93;94782.19;5014157;28;20227;-66
2021/05/14 10:33:49;;;;;;;0.10;0.10;;;;;;;20.63;46.93;94789.47;5017145;28;20243;-68
2021/05/14 10:36:47;;;;;;;0.10;0.10;;;;;;;21.21;44.81;94779.22;5015330;28;20227;-67
2021/05/14 10:39:17;;;;;;;0.53;0.53;;;;;;;20.80;46.61;94787.34;4998132;28;20732;-66
2021/05/14 10:42:06;;;;;;;0.10;0.10;;;;;;;20.63;44.80;94779.56;5010190;28;20215;-68
2021/05/14 10:44:48;;;;;;;0.20;0.20;;;;;;;21.30;42.74;94774.94;5016317;28;20228;-67
2021/05/14 10:47:46;;;;;;;0.10;0.10;;;;;;;20.67;44.97;94777.97;5008109;28;20644;-68
2021/05/14 10:50:39;;;;;;;2.10;0.20;;;;;;;20.62;46.00;94769.91;5013594;28;20232;-68
2021/05/14 10:53:35;;;;;;;0.37;0.10;;;;;;;20.59;45.90;94765.09;5021944;28;20321;-68
2021/05/14 10:56:26;;;;;;;0.10;0.10;;;;;;;20.64;41.67;94765.09;5024198;28;20242;-68
2021/05/14 10:59:07;;;;;;;0.40;0.40;;;;;;;20.94;48.34;94764.28;5006323;28;20224;-67
2021/05/14 11:01:37;;;;;;;0.10;0.10;;;;;;;19.16;47.07;94763.00;5023437;28;20230;-67
2021/05/14 11:04:25;;;;;;;0.40;0.40;;;;;;;19.71;48.03;94765.16;5022427;28;20353;-68
2021/05/14 11:06:54;;;;;;;0.20;0.17;;;;;;;18.54;45.69;94766.28;5013206;28;20708;-68
2021/05/14 11:09:23;;;;;;;0.17;0.17;;;;;;;18.81;47.76;94769.75;5012001;28;20318;-66
2021/05/14 11:11:58;;;;;;;0.20;0.10;;;;;;;17.53;52.03;94782.88;5009586;28;20652;-67
2021/05/14 11:14:39;;;;;;;0.10;0.10;;;;;;;18.26;52.24;94786.91;5017495;28;20572;-66
2021/05/14 11:17:09;;;;;;;0.43;0.20;;;;;;;18.15;47.12;94774.50;5012185;28;20215;-67
2021/05/14 11:19:46;;;;;;;0.17;0.17;;;;;;;18.62;49.28;94768.50;5015293;28;20635;-67
2021/05/14 11:22:16;;;;;;;0.57;0.10;;;;;;;18.86;47.92;94759.09;5021793;28;20836;-66
2021/05/14 11:24:49;;;;;;;0.10;0.10;;;;;;;19.08;45.26;94766.97;5020392;28;20224;-67
2021/05/14 11:27:19;;;;;;;0.20;0.20;;;;;;;19.71;44.42;94764.38;5016573;28;20231;-67
2021/05/14 11:29:50;;;;;;;0.10;0.10;;;;;;;20.42;46.26;94759.16;5017355;28;20234;-68
2021/05/14 11:32:33;;;;;;;0.50;0.20;;;;;;;19.44;46.91;94757.28;5014602;28;20314;-67
2021/05/14 11:35:06;;;;;;;1.03;0.87;;;;;;;20.03;46.45;94762.31;5014555;28;20239;-66
2021/05/14 11:37:36;;;;;;;0.10;0.10;;;;;;;20.66;43.83;94754.09;5007481;28;20306;-68
2021/05/14 11:40:12;;;;;;;0.10;0.10;;;;;;;20.94;43.33;94766.16;5015675;28;20224;-67
2021/05/14 11:42:44;;;;;;;3.40;0.40;;;;;;;20.72;45.71;94758.38;5019863;28;20779;-67
2021/05/14 11:45:14;;;;;;;0.43;0.13;;;;;;;20.66;47.47;94764.81;5022503;28;20318;-68
2021/05/14 11:47:53;;;;;;;0.10;0.10;;;;;;;19.44;46.13;94759.13;5024822;28;20303;-66
2021/05/14 11:50:28;;;;;;;0.43;0.17;;;;;;;18.95;49.59;94759.44;4992467;28;20524;-67
2021/05/14 11:52:58;;;;;;;1.13;0.83;;;;;;;18.84;49.87;94766.56;5018373;28;20222;-67